Hlavní strana
METAR-TAF:

METAR-TAF

Letiště :

Williamson County Regional Airport

Marion, Illinois, Spojené státy americké

zeměpisná šířka: 37-45-01N, zeměpisná délka: 089-00-04W, výška: 144 m

Aktuální stav počasí

Zpráva byla vytvořena před 23 minutami, v 09:15 UTC
Severní vítr 5 kt
Teplota -4°C
Vlhkost vzduchu 74%
Tlak 1017 hPa
Viditelnost: 16.1 km
Oblačno až skoro zataženo ve výšce 6500 ft
Oblačno až skoro zataženo ve výšce 8500 ft
Zataženo ve výšce 9500 ft

METAR: KMWA 160915Z AUTO 35005KT 10SM BKN065 BKN085 OVC095 M04/M08 A3003 RMK AO2 T10451077

Čas: 03:38 (09:38 UTC)


TAF: chybějící

Stav a předpovědi počasí z více než 4 000 letišť (zprávy METAR a TAF).

Červené a žluté tečky na mapě představují dostupné meteorologické stanice.

Když kurzor umístíte na tečku, zobrazí se název stanice.

Pak kliknutím zobrazíte stav a předpověď počasí.

Chcete-li změnit mapu, kliknutím na zelené tlačítko se znaménkem +mapu přiblížíte, kliknutím na zelené tlačítko se znaménkem – mapu oddálíte a kliknutím na zelené šipky přejdete na sousední mapy.


METAR-TAF: